Time;durP1;ratioP1;P1;durP2;ratioP2;P2;SDS_P1;SDS_P2;PMS_P1;PMS_P2;Temp;Humidity;BMP_temperature;BMP_pressure;BME280_temperature;BME280_humidity;BME280_pressure;Samples;Min_cycle;Max_cycle;Signal;HPM_P1;HPM_P2
2022/01/01 00:02:19;;;;;;;;;51.00;42.25;;;;;15.08;68.69;102163.94;5022152;28;45478;-64
2022/01/01 00:04:47;;;;;;;;;56.00;43.75;;;;;15.06;68.72;102168.50;5025859;28;45332;-65
2022/01/01 00:07:13;;;;;;;;;55.50;44.25;;;;;15.06;68.55;102165.81;5021789;28;45435;-65
2022/01/01 00:09:38;;;;;;;;;54.00;44.50;;;;;15.03;68.76;102165.00;5018752;28;45467;-65
2022/01/01 00:12:05;;;;;;;;;52.00;43.75;;;;;15.04;68.34;102167.66;5029941;28;45683;-65
2022/01/01 00:14:30;;;;;;;;;51.50;42.00;;;;;15.04;68.50;102169.47;5021671;28;46294;-65
2022/01/01 00:16:56;;;;;;;;;47.00;40.00;;;;;14.96;68.79;102156.22;5021867;28;45302;-65
2022/01/01 00:19:21;;;;;;;;;54.50;42.00;;;;;15.02;68.73;102172.22;5021449;28;45343;-64
2022/01/01 00:21:47;;;;;;;;;50.50;41.00;;;;;15.02;68.78;102172.22;5021326;28;45256;-64
2022/01/01 00:24:12;;;;;;;;;48.50;39.00;;;;;15.02;68.82;102166.81;5003577;28;48177;-65
2022/01/01 00:26:38;;;;;;;;;48.50;39.75;;;;;15.02;68.59;102174.91;5021552;28;45324;-65
2022/01/01 00:29:04;;;;;;;;;45.50;38.75;;;;;14.98;68.78;102157.06;5024649;28;45415;-65
2022/01/01 00:31:30;;;;;;;;;48.00;39.00;;;;;14.95;68.77;102158.06;5020789;28;45547;-65
2022/01/01 00:33:55;;;;;;;;;46.00;37.75;;;;;15.01;68.82;102163.22;5021677;28;45274;-65
2022/01/01 00:36:21;;;;;;;;;50.00;41.75;;;;;15.00;68.91;102160.59;5021677;28;45304;-65
2022/01/01 00:38:46;;;;;;;;;51.75;41.25;;;;;14.97;68.65;102158.88;5013634;28;45465;-65
2022/01/01 00:41:12;;;;;;;;;47.75;40.00;;;;;14.98;68.89;102160.66;5020340;28;45577;-65
2022/01/01 00:43:38;;;;;;;;;49.00;41.50;;;;;14.99;68.89;102164.22;5021577;28;45238;-65
2022/01/01 00:46:03;;;;;;;;;48.75;40.25;;;;;14.97;68.88;102161.56;5020066;28;45242;-65
2022/01/01 00:48:28;;;;;;;;;49.00;41.00;;;;;14.97;68.77;102158.88;5020836;28;45145;-65
2022/01/01 00:50:54;;;;;;;;;43.25;37.25;;;;;14.96;68.65;102162.47;5021409;28;45455;-65
2022/01/01 00:53:19;;;;;;;;;42.00;36.50;;;;;14.96;68.68;102167.00;5020898;28;45603;-65
2022/01/01 00:55:44;;;;;;;;;43.25;36.75;;;;;14.98;68.97;102182.16;5021287;28;45149;-65
2022/01/01 00:58:10;;;;;;;;;48.00;40.75;;;;;14.96;68.88;102175.94;5021162;28;45206;-64
2022/01/01 01:00:36;;;;;;;;;45.75;37.00;;;;;14.98;69.01;102170.50;5021095;28;45394;-64
2022/01/01 01:03:10;;;;;;;;;45.25;37.00;;;;;14.98;68.78;102167.81;5028780;28;45242;-65
2022/01/01 01:05:37;;;;;;;;;43.00;36.00;;;;;14.97;68.81;102169.63;5020381;28;45382;-65
2022/01/01 01:08:04;;;;;;;;;43.50;37.25;;;;;14.95;68.77;102165.22;5018703;28;45450;-65
2022/01/01 01:10:30;;;;;;;;;38.00;34.00;;;;;14.95;68.79;102159.84;5020950;28;45455;-65
2022/01/01 01:12:55;;;;;;;;;37.75;33.75;;;;;14.95;68.85;102158.06;5020686;28;46113;-65
2022/01/01 01:15:20;;;;;;;;;34.75;31.25;;;;;14.97;68.93;102160.69;5021106;28;45463;-64
2022/01/01 01:17:47;;;;;;;;;33.75;32.25;;;;;14.99;68.96;102167.78;5020461;28;45469;-64
2022/01/01 01:20:13;;;;;;;;;37.75;33.00;;;;;14.98;68.82;102174.09;5020901;28;45428;-64
2022/01/01 01:22:39;;;;;;;;;33.50;32.25;;;;;14.95;68.61;102160.75;5020438;28;45305;-65
2022/01/01 01:25:05;;;;;;;;;36.75;33.00;;;;;14.90;68.79;102153.72;5022490;28;45443;-64
2022/01/01 01:27:30;;;;;;;;;42.00;34.75;;;;;14.90;68.92;102160.00;5020932;28;45443;-65
2022/01/01 01:29:59;;;;;;;;;39.50;33.50;;;;;14.88;68.52;102159.13;5020610;28;45280;-65
2022/01/01 01:32:25;;;;;;;;;42.00;35.75;;;;;14.88;68.72;102169.88;5020748;28;45484;-65
2022/01/01 01:34:50;;;;;;;;;40.50;34.75;;;;;14.86;68.90;102158.28;5020648;28;45300;-65
2022/01/01 01:37:16;;;;;;;;;36.75;34.00;;;;;14.85;68.86;102150.28;5017908;28;45313;-64
2022/01/01 01:39:41;;;;;;;;;40.25;34.75;;;;;14.84;68.61;102153.91;5007021;28;45361;-64
2022/01/01 01:42:07;;;;;;;;;36.00;33.00;;;;;14.80;68.74;102153.06;5016157;28;45558;-64
2022/01/01 01:44:36;;;;;;;;;36.50;32.00;;;;;14.78;69.01;102163.91;5020503;28;45329;-65
2022/01/01 01:47:12;;;;;;;;;29.00;29.00;;;;;14.78;69.06;102171.06;5012340;28;45340;-65
2022/01/01 01:49:38;;;;;;;;;31.75;30.50;;;;;14.75;69.13;102160.38;5017194;28;45478;-65
2022/01/01 01:52:03;;;;;;;;;34.50;31.00;;;;;14.74;69.05;102155.94;5019873;28;45354;-64
2022/01/01 01:54:29;;;;;;;;;30.75;29.25;;;;;14.73;68.73;102155.06;5020218;28;45395;-65
2022/01/01 01:56:54;;;;;;;;;31.75;29.00;;;;;14.70;69.21;102160.53;5019880;28;45218;-65
2022/01/01 01:59:21;;;;;;;;;30.75;29.00;;;;;14.72;68.96;102164.06;5015470;28;45396;-64
2022/01/01 02:01:47;;;;;;;;;27.50;27.00;;;;;14.71;68.63;102153.34;5018579;28;46119;-65
2022/01/01 02:04:12;;;;;;;;;31.50;29.50;;;;;14.70;69.00;102155.16;5020468;28;45304;-64
2022/01/01 02:06:39;;;;;;;;;35.00;31.00;;;;;14.68;68.88;102165.03;5019016;28;45475;-64
2022/01/01 02:09:05;;;;;;;;;30.25;27.50;;;;;14.66;69.32;102150.78;5020093;28;45448;-64
2022/01/01 02:11:30;;;;;;;;;34.00;31.00;;;;;14.67;69.11;102151.66;5019822;28;45266;-65
2022/01/01 02:14:03;;;;;;;;;36.50;31.25;;;;;14.62;68.95;102157.16;5024398;28;45529;-65
2022/01/01 02:16:49;;;;;;;;;34.75;31.50;;;;;14.61;69.30;102158.94;5019886;28;45308;-65
2022/01/01 02:19:14;;;;;;;;;35.75;31.50;;;;;14.57;69.37;102156.38;5019628;28;45169;-64
2022/01/01 02:21:39;;;;;;;;;33.75;31.50;;;;;14.56;69.45;102147.41;5019339;28;46183;-65
2022/01/01 02:24:05;;;;;;;;;39.00;33.00;;;;;14.58;69.29;102153.66;5001560;28;45506;-65
2022/01/01 02:26:33;;;;;;;;;31.25;30.25;;;;;14.60;69.35;102149.16;5020264;28;45151;-64
2022/01/01 02:28:59;;;;;;;;;35.25;32.00;;;;;14.59;69.12;102147.38;5017840;28;45457;-65
2022/01/01 02:31:25;;;;;;;;;32.75;31.00;;;;;14.57;69.16;102138.44;5019820;28;46040;-64
2022/01/01 02:33:51;;;;;;;;;28.50;27.50;;;;;14.58;69.11;102142.91;5019774;28;45450;-64
2022/01/01 02:36:29;;;;;;;;;36.25;32.50;;;;;14.59;68.97;102146.50;5020184;28;45315;-65
2022/01/01 02:38:54;;;;;;;;;32.00;31.50;;;;;14.57;68.92;102135.75;5019152;28;45344;-64
2022/01/01 02:41:19;;;;;;;;;37.25;33.00;;;;;14.58;68.95;102136.63;5019511;28;45429;-65
2022/01/01 02:43:45;;;;;;;;;33.00;31.75;;;;;14.57;69.10;102132.19;5019693;28;45378;-64
2022/01/01 02:46:10;;;;;;;;;36.25;31.00;;;;;14.51;69.33;102122.47;5021466;28;45251;-65
2022/01/01 02:48:36;;;;;;;;;43.00;34.25;;;;;14.56;69.30;102125.91;5020361;28;45533;-64
2022/01/01 02:51:01;;;;;;;;;33.00;30.75;;;;;14.55;68.91;102129.53;5019334;28;46392;-65
2022/01/01 02:53:27;;;;;;;;;38.50;33.50;;;;;14.55;68.84;102128.66;5019165;28;45639;-65
2022/01/01 02:55:52;;;;;;;;;34.75;32.00;;;;;14.53;68.88;102134.06;5019592;28;45458;-65
2022/01/01 02:58:17;;;;;;;;;35.50;33.50;;;;;14.48;68.89;102135.13;5019237;28;45473;-64
2022/01/01 03:00:43;;;;;;;;;40.00;34.25;;;;;14.50;69.08;102136.84;5011647;28;46290;-64
2022/01/01 03:03:08;;;;;;;;;34.50;31.00;;;;;14.45;68.97;102136.09;5019062;28;45329;-65
2022/01/01 03:05:35;;;;;;;;;40.75;33.25;;;;;14.39;69.02;102126.38;5019446;28;45291;-64
2022/01/01 03:08:01;;;;;;;;;36.75;33.75;;;;;14.48;68.89;102140.50;5017447;28;45396;-65
2022/01/01 03:10:26;;;;;;;;;43.50;37.00;;;;;14.49;69.15;102144.94;5019411;28;45392;-64
2022/01/01 03:12:52;;;;;;;;;42.50;35.00;;;;;14.42;68.93;102137.03;5019514;28;45276;-64
2022/01/01 03:15:17;;;;;;;;;47.25;38.50;;;;;14.44;68.87;102131.63;5019540;28;45838;-65
2022/01/01 03:17:42;;;;;;;;;48.50;38.00;;;;;14.45;68.75;102136.09;5020085;28;45450;-64
2022/01/01 03:20:09;;;;;;;;;48.50;39.25;;;;;14.43;69.11;102130.75;5018148;28;45153;-65
2022/01/01 03:22:34;;;;;;;;;46.75;39.50;;;;;14.38;68.89;102126.41;5029846;28;45459;-64
2022/01/01 03:24:59;;;;;;;;;49.25;41.50;;;;;14.41;68.74;102139.78;5019328;28;45551;-66
2022/01/01 03:27:25;;;;;;;;;48.00;39.75;;;;;14.42;68.82;102147.78;5020032;28;45399;-65
2022/01/01 03:29:50;;;;;;;;;46.75;39.75;;;;;14.41;69.15;102143.31;5026809;28;45236;-65
2022/01/01 03:32:16;;;;;;;;;45.50;39.00;;;;;14.41;69.04;102143.31;5024832;28;45297;-65
2022/01/01 03:34:42;;;;;;;;;45.50;39.75;;;;;14.37;68.82;102140.78;5022762;28;45293;-65
2022/01/01 03:37:07;;;;;;;;;45.25;36.25;;;;;14.42;68.66;102150.47;5022204;28;45331;-64
2022/01/01 03:39:33;;;;;;;;;39.50;34.75;;;;;14.42;68.71;102147.78;5022123;28;46027;-65
2022/01/01 03:41:58;;;;;;;;;34.00;30.75;;;;;14.40;69.01;102152.31;5022321;28;45464;-64
2022/01/01 03:44:24;;;;;;;;;35.75;33.00;;;;;14.36;69.01;102136.31;5021396;28;45335;-64
2022/01/01 03:46:49;;;;;;;;;33.25;31.25;;;;;14.32;68.93;102130.16;5023511;28;45297;-64
2022/01/01 03:49:15;;;;;;;;;37.50;31.25;;;;;14.31;69.03;102123.00;5019246;28;45967;-64
2022/01/01 03:51:41;;;;;;;;;31.50;31.25;;;;;14.29;69.07;102124.84;5021871;28;45517;-65
2022/01/01 03:54:07;;;;;;;;;35.50;32.00;;;;;14.29;68.71;102122.16;5012988;28;45407;-64
2022/01/01 03:56:32;;;;;;;;;36.25;32.00;;;;;14.26;68.75;102124.94;5022129;28;45533;-65
2022/01/01 03:58:57;;;;;;;;;31.25;31.00;;;;;14.23;68.98;102130.38;5022086;28;46048;-64
2022/01/01 04:01:23;;;;;;;;;28.75;28.75;;;;;14.24;69.33;102135.72;5022099;28;45145;-64
2022/01/01 04:03:48;;;;;;;;;41.00;31.50;;;;;14.24;68.82;102135.72;5022429;28;45240;-64
2022/01/01 04:06:13;;;;;;;;;34.50;31.00;;;;;14.19;69.13;102134.94;5023181;28;45403;-64
2022/01/01 04:08:39;;;;;;;;;30.25;29.00;;;;;14.12;69.28;102119.91;5021577;28;46423;-64
2022/01/01 04:11:04;;;;;;;;;34.75;33.00;;;;;14.18;68.92;102134.97;5025545;28;45193;-65
2022/01/01 04:13:30;;;;;;;;;31.75;30.00;;;;;14.14;68.88;102128.81;5022157;28;45281;-64
2022/01/01 04:15:55;;;;;;;;;36.00;31.25;;;;;14.14;68.81;102133.31;5021786;28;45493;-65
2022/01/01 04:18:37;;;;;;;;;34.00;32.25;;;;;14.14;69.00;102122.56;5021432;28;46156;-64
2022/01/01 04:21:03;;;;;;;;;32.75;31.75;;;;;14.11;69.04;102131.56;5010161;28;45258;-65
2022/01/01 04:23:28;;;;;;;;;33.75;31.75;;;;;14.12;68.97;102127.97;5024104;28;45315;-64
2022/01/01 04:25:54;;;;;;;;;36.00;31.50;;;;;14.09;68.70;102126.22;5022926;28;45347;-64
2022/01/01 04:28:19;;;;;;;;;34.75;30.50;;;;;14.11;68.70;102130.69;5021271;28;45325;-64
2022/01/01 04:30:45;;;;;;;;;35.50;31.25;;;;;14.06;68.95;102123.63;5009372;28;45308;-64
2022/01/01 04:33:10;;;;;;;;;31.00;30.00;;;;;14.05;69.00;102115.63;5030481;28;45376;-64
2022/01/01 04:35:36;;;;;;;;;31.50;29.25;;;;;14.02;68.63;102132.69;5022627;28;45250;-64
2022/01/01 04:38:01;;;;;;;;;31.75;31.25;;;;;13.99;68.64;102130.06;5020934;28;45340;-65
2022/01/01 04:40:26;;;;;;;;;32.25;29.75;;;;;13.94;68.66;102123.94;5021280;28;45344;-64
2022/01/01 04:42:52;;;;;;;;;26.00;26.00;;;;;13.95;69.06;102125.72;5021785;28;45277;-64
2022/01/01 04:45:17;;;;;;;;;28.75;28.00;;;;;13.92;68.89;102131.16;5021586;28;45419;-64
2022/01/01 04:47:42;;;;;;;;;34.25;32.50;;;;;13.89;69.06;102121.34;5021652;28;45413;-65
2022/01/01 04:50:08;;;;;;;;;35.00;29.50;;;;;13.86;69.03;102125.91;5021018;28;45455;-64
2022/01/01 04:52:34;;;;;;;;;18.00;14.75;;;;;13.87;69.18;102135.75;5021439;28;45565;-64
2022/01/01 04:54:59;;;;;;;;;33.25;30.25;;;;;13.88;69.02;102135.72;5021132;28;45464;-64
2022/01/01 04:57:30;;;;;;;;;29.50;28.50;;;;;13.89;68.91;102128.53;5020847;28;46220;-64
2022/01/01 04:59:57;;;;;;;;;29.75;29.00;;;;;13.85;68.78;102125.06;5020242;28;45544;-64
2022/01/01 05:02:22;;;;;;;;;29.25;27.75;;;;;13.85;69.10;102124.19;5030365;28;45412;-64
2022/01/01 05:04:48;;;;;;;;;34.00;25.75;;;;;13.82;68.69;102126.94;5020481;28;45364;-64
2022/01/01 05:07:13;;;;;;;;;28.00;27.00;;;;;13.82;68.90;102129.63;5020646;28;45336;-64
2022/01/01 05:09:38;;;;;;;;;32.25;31.75;;;;;13.77;69.02;102131.53;5021188;28;45363;-64
2022/01/01 05:12:04;;;;;;;;;34.25;31.00;;;;;13.76;68.98;102130.63;5019764;28;45504;-64
2022/01/01 05:14:31;;;;;;;;;33.00;31.00;;;;;13.69;68.99;102140.63;5021004;28;45284;-64
2022/01/01 05:16:57;;;;;;;;;27.75;26.75;;;;;13.69;69.14;102137.94;5019775;28;45597;-64
2022/01/01 05:19:22;;;;;;;;;29.25;28.50;;;;;13.66;69.32;102132.63;5020063;28;45317;-65
2022/01/01 05:21:47;;;;;;;;;32.75;31.00;;;;;13.67;69.48;102136.22;5020742;28;45361;-64
2022/01/01 05:24:18;;;;;;;;;31.75;30.25;;;;;13.66;69.04;102132.63;5020561;28;45393;-64
2022/01/01 05:26:43;;;;;;;;;30.25;28.75;;;;;13.67;69.09;102130.84;5020792;28;45367;-64
2022/01/01 05:29:09;;;;;;;;;31.00;26.50;;;;;13.68;69.04;102136.19;5008531;28;45329;-64
2022/01/01 05:31:34;;;;;;;;;34.25;31.25;;;;;13.66;69.04;102129.06;5020935;28;45299;-65
2022/01/01 05:33:59;;;;;;;;;31.50;29.50;;;;;13.66;69.13;102131.75;5023114;28;45301;-64
2022/01/01 05:36:25;;;;;;;;;36.25;33.25;;;;;13.64;68.90;102131.78;5029060;28;46315;-64
2022/01/01 05:38:50;;;;;;;;;31.25;29.75;;;;;13.65;69.21;102125.50;5019261;28;45298;-64
2022/01/01 05:41:15;;;;;;;;;31.50;26.50;;;;;13.63;69.17;102122.00;5013923;28;45448;-64
2022/01/01 05:43:41;;;;;;;;;26.00;22.50;;;;;13.61;69.38;102126.50;5025352;28;45325;-64
2022/01/01 05:46:06;;;;;;;;;27.00;26.00;;;;;13.58;69.48;102121.22;5028934;28;46319;-64
2022/01/01 05:48:32;;;;;;;;;25.75;23.50;;;;;13.57;68.92;102115.88;5020192;28;45467;-64
2022/01/01 05:50:58;;;;;;;;;25.50;24.00;;;;;13.58;69.07;102120.31;5018945;28;45211;-64
2022/01/01 05:53:23;;;;;;;;;23.50;23.00;;;;;13.55;68.92;102117.69;5019717;28;45361;-64
2022/01/01 05:55:49;;;;;;;;;28.25;23.75;;;;;13.48;68.85;102112.50;5020221;28;46032;-65
2022/01/01 05:58:15;;;;;;;;;23.00;20.75;;;;;13.43;68.47;102102.75;5020384;28;45303;-64
2022/01/01 06:00:42;;;;;;;;;18.75;18.75;;;;;13.47;68.93;102116.09;5020320;28;45316;-64
2022/01/01 06:03:08;;;;;;;;;18.00;16.25;;;;;13.45;68.92;102111.69;5018706;28;45427;-64
2022/01/01 06:05:34;;;;;;;;;21.75;20.00;;;;;13.39;69.04;102101.97;5019697;28;45807;-64
2022/01/01 06:08:00;;;;;;;;;21.25;18.75;;;;;13.41;68.89;102105.47;5019908;28;45391;-64
2022/01/01 06:10:26;;;;;;;;;16.75;16.25;;;;;13.40;68.93;102114.47;5019739;28;45643;-64
2022/01/01 06:12:52;;;;;;;;;24.50;21.25;;;;;13.39;69.16;102112.69;5002494;28;45470;-64
2022/01/01 06:15:17;;;;;;;;;23.00;20.75;;;;;13.39;68.96;102106.44;5020969;28;45281;-64
2022/01/01 06:17:43;;;;;;;;;19.50;19.50;;;;;13.38;69.00;102105.56;5019922;28;45232;-64
2022/01/01 06:20:09;;;;;;;;;20.50;20.00;;;;;13.36;69.06;102109.19;5019276;28;45482;-64
2022/01/01 06:22:35;;;;;;;;;20.75;17.50;;;;;13.33;68.97;102100.31;5028781;28;45215;-64
2022/01/01 06:25:00;;;;;;;;;21.50;19.25;;;;;13.36;69.11;102118.13;5019966;28;45409;-64
2022/01/01 06:27:25;;;;;;;;;20.50;19.00;;;;;13.33;68.73;102118.19;5027925;28;45296;-64
2022/01/01 06:29:51;;;;;;;;;22.00;20.25;;;;;13.29;68.86;102111.97;5020898;28;50599;-64
2022/01/01 06:32:16;;;;;;;;;17.50;17.00;;;;;13.28;68.74;102117.38;5019948;28;45534;-64
2022/01/01 06:34:42;;;;;;;;;20.25;17.75;;;;;13.25;68.74;102109.41;5019596;28;46157;-64
2022/01/01 06:37:07;;;;;;;;;20.00;20.00;;;;;13.26;68.72;102111.16;5019447;28;45539;-64
2022/01/01 06:39:33;;;;;;;;;20.00;19.00;;;;;13.23;68.32;102111.22;5020152;28;45592;-64
2022/01/01 06:41:58;;;;;;;;;16.75;16.00;;;;;13.18;68.59;102114.03;5019423;28;45315;-64
2022/01/01 06:44:23;;;;;;;;;18.25;16.25;;;;;13.13;68.79;102106.06;5021933;28;45435;-64
2022/01/01 06:46:49;;;;;;;;;18.25;16.00;;;;;13.10;68.70;102110.63;5021823;28;45320;-64
2022/01/01 06:49:15;;;;;;;;;16.50;15.75;;;;;13.09;69.00;102101.66;5018888;28;45562;-64
2022/01/01 06:51:40;;;;;;;;;18.75;18.75;;;;;13.10;68.85;102105.25;5019120;28;45429;-64
2022/01/01 06:54:05;;;;;;;;;19.25;19.25;;;;;13.04;69.03;102105.38;5018922;28;45535;-64
2022/01/01 06:56:31;;;;;;;;;21.50;18.50;;;;;12.98;69.18;102101.91;4999923;28;45451;-64
2022/01/01 06:58:56;;;;;;;;;17.25;17.25;;;;;12.99;69.19;102102.78;5005877;28;45614;-64
2022/01/01 07:01:22;;;;;;;;;18.75;16.00;;;;;13.03;69.35;102103.59;5019256;28;45710;-64
2022/01/01 07:03:47;;;;;;;;;21.00;18.50;;;;;13.03;69.42;102104.50;5022490;28;46092;-64
2022/01/01 07:06:12;;;;;;;;;17.75;16.50;;;;;13.04;69.14;102111.63;5022890;28;46369;-64
2022/01/01 07:08:38;;;;;;;;;17.75;17.25;;;;;12.97;69.16;102097.44;5023046;28;45422;-64
2022/01/01 07:11:03;;;;;;;;;23.00;21.75;;;;;12.90;69.44;102081.56;5022935;28;45326;-64
2022/01/01 07:13:28;;;;;;;;;21.25;18.75;;;;;13.01;69.38;102102.75;5022763;28;45888;-64
2022/01/01 07:15:54;;;;;;;;;21.25;19.75;;;;;13.03;69.50;102103.59;5027914;28;45201;-64
2022/01/01 07:18:19;;;;;;;;;27.25;23.00;;;;;13.03;69.46;102108.97;5022212;28;45286;-64
2022/01/01 07:20:45;;;;;;;;;21.75;19.25;;;;;13.03;69.55;102111.63;5020224;28;45221;-64
2022/01/01 07:23:10;;;;;;;;;19.00;18.25;;;;;13.03;69.42;102108.97;5011582;28;45523;-64
2022/01/01 07:25:36;;;;;;;;;17.50;16.50;;;;;13.03;69.35;102104.50;5022723;28;45195;-64
2022/01/01 07:28:02;;;;;;;;;17.75;17.75;;;;;13.02;69.38;102104.53;5022902;28;45506;-64
2022/01/01 07:30:27;;;;;;;;;22.25;17.50;;;;;13.03;69.27;102104.50;5022588;28;45288;-64
2022/01/01 07:32:53;;;;;;;;;23.00;21.75;;;;;13.05;69.01;102104.47;5026224;28;45455;-64
2022/01/01 07:35:20;;;;;;;;;18.00;15.75;;;;;12.98;69.00;102093.00;5022502;28;45339;-64
2022/01/01 07:37:46;;;;;;;;;17.00;16.25;;;;;12.98;68.86;102109.97;5012097;28;45341;-64
2022/01/01 07:40:14;;;;;;;;;15.50;15.00;;;;;12.96;69.05;102116.25;5018141;28;45580;-64
2022/01/01 07:42:40;;;;;;;;;17.00;15.00;;;;;12.96;69.00;102108.22;5022296;28;46185;-64
2022/01/01 07:45:07;;;;;;;;;16.75;14.25;;;;;12.94;69.21;102116.28;5022455;28;45497;-64
2022/01/01 07:47:33;;;;;;;;;16.75;14.25;;;;;12.92;68.92;102109.19;5022854;28;45380;-64
2022/01/01 07:49:58;;;;;;;;;21.00;16.50;;;;;12.88;68.91;102104.78;5024906;28;46885;-64
2022/01/01 07:52:24;;;;;;;;;19.00;19.00;;;;;12.90;69.02;102108.34;5018442;28;45374;-64
2022/01/01 07:54:49;;;;;;;;;18.25;16.25;;;;;12.84;68.99;102106.66;5022107;28;45403;-64
2022/01/01 07:57:15;;;;;;;;;17.00;15.75;;;;;12.83;69.09;102107.59;5022508;28;45335;-64
2022/01/01 07:59:40;;;;;;;;;15.75;15.50;;;;;12.76;68.89;102100.56;5022186;28;45591;-65
2022/01/01 08:02:06;;;;;;;;;17.50;16.00;;;;;12.74;69.04;102102.41;5021705;28;45222;-64
2022/01/01 08:04:31;;;;;;;;;15.75;13.00;;;;;12.71;68.85;102108.72;5021458;28;45356;-64
2022/01/01 08:06:56;;;;;;;;;16.00;16.00;;;;;12.67;68.94;102109.69;5023044;28;45495;-64
2022/01/01 08:09:22;;;;;;;;;15.50;15.50;;;;;12.68;69.21;102118.59;5032726;28;46042;-64
2022/01/01 08:11:47;;;;;;;;;15.75;15.75;;;;;12.69;69.06;102117.69;5020894;28;46359;-64
2022/01/01 08:14:12;;;;;;;;;15.75;12.50;;;;;12.68;68.91;102118.59;5020802;28;45349;-64
2022/01/01 08:16:59;;;;;;;;;14.75;14.00;;;;;12.65;69.00;102114.19;5021759;28;45653;-65
2022/01/01 08:19:26;;;;;;;;;16.50;15.50;;;;;12.63;69.14;102109.75;5020687;28;45531;-64
2022/01/01 08:21:52;;;;;;;;;15.50;15.50;;;;;12.63;68.83;102112.44;5020960;28;46462;-63
2022/01/01 08:24:17;;;;;;;;;12.75;12.00;;;;;12.55;69.03;102100.09;5020153;28;47366;-64
2022/01/01 08:26:43;;;;;;;;;13.25;12.00;;;;;12.57;68.72;102095.56;5021540;28;45343;-64
2022/01/01 08:29:08;;;;;;;;;15.00;13.50;;;;;12.56;69.14;102091.16;5021502;28;45520;-64
2022/01/01 08:31:34;;;;;;;;;16.50;14.75;;;;;12.53;68.96;102091.19;5020971;28;46026;-64
2022/01/01 08:33:59;;;;;;;;;16.25;14.00;;;;;12.55;69.23;102100.09;5021464;28;45299;-65
2022/01/01 08:36:24;;;;;;;;;16.75;15.50;;;;;12.59;69.25;102099.09;5021694;28;45397;-65
2022/01/01 08:38:50;;;;;;;;;17.25;16.00;;;;;12.63;69.19;102099.03;5021550;28;45507;-65
2022/01/01 08:41:16;;;;;;;;;18.25;17.00;;;;;12.65;69.21;102099.91;5020359;28;46255;-65
2022/01/01 08:43:41;;;;;;;;;16.25;16.25;;;;;12.65;69.14;102098.13;5018047;28;45475;-66
2022/01/01 08:46:07;;;;;;;;;17.25;15.75;;;;;12.67;69.16;102096.28;5021451;28;45327;-66
2022/01/01 08:48:33;;;;;;;;;15.50;14.25;;;;;12.72;69.12;102107.78;5003530;28;45681;-66
2022/01/01 08:50:58;;;;;;;;;17.75;17.25;;;;;12.76;69.06;102104.16;5022714;28;45584;-66
2022/01/01 08:53:23;;;;;;;;;15.25;13.25;;;;;12.78;68.76;102101.44;5019360;28;45128;-66
2022/01/01 08:55:49;;;;;;;;;13.25;13.25;;;;;12.76;68.93;102095.22;5023136;28;45295;-66
2022/01/01 08:58:14;;;;;;;;;17.25;16.25;;;;;12.72;68.71;102082.81;5025251;28;45428;-66
2022/01/01 09:00:40;;;;;;;;;14.75;13.00;;;;;12.69;68.79;102083.72;5019710;28;46082;-65
2022/01/01 09:03:06;;;;;;;;;19.25;15.25;;;;;12.71;68.78;102089.97;5020388;28;45476;-66
2022/01/01 09:05:31;;;;;;;;;15.50;15.50;;;;;12.70;68.86;102085.50;5011902;28;45470;-65
2022/01/01 09:07:57;;;;;;;;;21.75;18.75;;;;;12.73;68.84;102088.13;5021050;28;45225;-65
2022/01/01 09:10:22;;;;;;;;;17.25;15.50;;;;;12.75;68.67;102098.81;5002892;28;47250;-66
2022/01/01 09:12:47;;;;;;;;;15.00;13.75;;;;;12.74;68.64;102105.09;5021150;28;45458;-66
2022/01/01 09:15:13;;;;;;;;;15.75;13.25;;;;;12.72;68.77;102091.72;5022256;28;45350;-66
2022/01/01 09:17:39;;;;;;;;;15.00;12.00;;;;;12.72;68.71;102089.03;5015889;28;45403;-66
2022/01/01 09:20:05;;;;;;;;;15.50;14.75;;;;;12.77;68.54;102086.28;5010405;28;45998;-66
2022/01/01 09:22:30;;;;;;;;;14.00;14.00;;;;;12.74;68.94;102075.59;5016416;28;45382;-66
2022/01/01 09:24:55;;;;;;;;;17.75;17.50;;;;;12.72;68.88;102081.00;5016727;28;45518;-66
2022/01/01 09:27:21;;;;;;;;;16.50;15.25;;;;;12.73;68.73;102071.16;5011414;28;45697;-66
2022/01/01 09:29:46;;;;;;;;;17.25;15.75;;;;;12.70;68.83;102074.78;5011514;28;45328;-66
2022/01/01 09:32:12;;;;;;;;;16.00;15.00;;;;;12.71;68.73;102078.34;5023285;28;45523;-66
2022/01/01 09:34:37;;;;;;;;;16.00;15.00;;;;;12.70;68.80;102068.56;5020111;28;45961;-66
2022/01/01 09:37:04;;;;;;;;;19.00;16.75;;;;;12.68;68.84;102065.00;5001799;28;45446;-67
2022/01/01 09:39:30;;;;;;;;;18.75;17.50;;;;;12.63;69.00;102049.03;5025615;28;45428;-67
2022/01/01 09:41:56;;;;;;;;;16.50;16.50;;;;;12.65;68.77;102057.06;5020631;28;45442;-67
2022/01/01 09:44:22;;;;;;;;;19.00;17.50;;;;;12.65;69.17;102051.69;5026611;28;45435;-66
2022/01/01 09:46:49;;;;;;;;;14.00;13.50;;;;;12.68;69.19;102059.66;5025696;28;45809;-66
2022/01/01 09:49:17;;;;;;;;;17.25;16.00;;;;;12.67;68.94;102052.53;5023352;28;46265;-65
2022/01/01 09:51:43;;;;;;;;;19.00;16.00;;;;;12.67;68.92;102060.59;5015834;28;45749;-65
2022/01/01 09:54:09;;;;;;;;;15.75;14.00;;;;;12.69;69.11;102067.66;5017565;28;45270;-65
2022/01/01 09:56:35;;;;;;;;;16.25;15.75;;;;;12.70;69.09;102058.72;5014419;28;45358;-65
2022/01/01 09:59:00;;;;;;;;;15.25;14.25;;;;;12.67;69.21;102064.13;5008239;28;46173;-66
2022/01/01 10:01:25;;;;;;;;;13.50;13.50;;;;;12.70;69.21;102052.50;5019779;28;45519;-66
2022/01/01 10:03:52;;;;;;;;;15.75;15.25;;;;;12.71;69.18;102051.56;5020330;28;45347;-65
2022/01/01 10:06:21;;;;;;;;;21.75;14.75;;;;;12.70;68.98;102052.50;5017132;28;45307;-65
2022/01/01 10:08:49;;;;;;;;;14.00;14.00;;;;;12.67;68.98;102056.09;5019432;28;45421;-66
2022/01/01 10:11:18;;;;;;;;;16.25;16.25;;;;;12.64;69.20;102050.78;5022684;28;46015;-64
2022/01/01 10:13:45;;;;;;;;;17.00;14.00;;;;;12.66;69.30;102053.44;5009212;28;45721;-66
2022/01/01 10:16:11;;;;;;;;;14.25;14.25;;;;;12.66;69.36;102050.75;5018781;28;45835;-65
2022/01/01 10:18:44;;;;;;;;;18.25;18.25;;;;;12.66;69.15;102048.09;5023815;28;45468;-66
2022/01/01 10:21:24;;;;;;;;;14.25;14.25;;;;;12.70;69.50;102053.34;5014293;28;47018;-67
2022/01/01 10:23:52;;;;;;;;;15.25;15.25;;;;;12.71;69.47;102047.09;4996298;28;45487;-65
2022/01/01 10:29:14;;;;;;;;;16.75;13.25;;;;;12.77;69.24;102041.59;5019411;28;45277;-65
2022/01/01 10:31:55;;;;;;;;;16.75;15.50;;;;;12.77;68.84;102038.03;5018302;28;45444;-66
2022/01/01 10:34:24;;;;;;;;;11.75;10.75;;;;;12.80;69.35;102048.69;5012011;28;45284;-65
2022/01/01 10:36:52;;;;;;;;;15.75;13.50;;;;;12.78;69.28;102043.38;5016910;28;45582;-65
2022/01/01 10:39:18;;;;;;;;;10.00;10.00;;;;;12.79;69.38;102044.25;5009508;28;46355;-65
2022/01/01 10:42:12;;;;;;;;;14.00;12.75;;;;;12.88;69.43;102059.25;5018538;28;45324;-65
2022/01/01 10:44:38;;;;;;;;;13.00;12.75;;;;;12.86;69.37;102048.53;5031594;28;45429;-66
2022/01/01 10:47:15;;;;;;;;;13.75;13.75;;;;;12.91;69.34;102041.31;5019307;28;45274;-65
2022/01/01 10:52:18;;;;;;;;;12.75;12.75;;;;;13.03;69.53;102042.84;5014636;28;46068;-65
2022/01/01 10:54:54;;;;;;;;;11.75;11.50;;;;;13.03;69.29;102041.94;5017596;28;45424;-65
2022/01/01 10:57:33;;;;;;;;;14.00;13.00;;;;;13.08;69.32;102048.09;5018973;28;45377;-65
2022/01/01 11:00:06;;;;;;;;;13.25;12.75;;;;;13.13;69.40;102048.88;5022899;28;46204;-65
2022/01/01 11:02:33;;;;;;;;;10.25;9.00;;;;;13.18;69.23;102049.69;5017950;28;45401;-65
2022/01/01 11:04:59;;;;;;;;;14.00;14.00;;;;;13.22;69.21;102050.47;5018492;28;45381;-65
2022/01/01 11:07:26;;;;;;;;;13.00;12.50;;;;;13.24;69.12;102045.97;5018165;28;45376;-65
2022/01/01 11:09:54;;;;;;;;;12.50;12.50;;;;;13.26;68.81;102046.81;5017501;28;47414;-65
2022/01/01 11:12:21;;;;;;;;;14.75;10.50;;;;;13.27;68.92;102043.22;5016257;28;45704;-65